Impacts TAF Board INFO
FOR SITUATIONAL AWARENESS. NOT TO BE USED FOR FLIGHT PLANNING PURPOSES.
IDs:

KPHL - Philadelphia Intl, PA, US

Issued at 2328 UTC 22 Jun 2018
Updated at 0033 UTC 23 Jun 2018
Potential Impact None Slight Moderate High
Time0021Z 23/01Z 23/02Z 23/03Z 23/04Z 23/05Z 23/06Z 23/07Z 23/08Z 23/09Z 23/10Z 23/11Z 23/12Z 23/13Z>>
Type OBS PRVL PRVL PRVL PRVL PRVL PRVL PRVL PRVL PRVL PRVL PRVL PRVL PRVL
VIS 3 6 6 6 6 4 4 4 4 4 4 4 4 6
CIG 25 25 25 25 25 8 8 8 8 8 8 8 8 10
Cover OVC OVC OVC OVC OVC OVC OVC OVC OVC OVC OVC OVC OVC OVC
FltCat MVFR MVFR MVFR MVFR MVFR IFR IFR IFR IFR IFR IFR IFR IFR MVFR
WX -RA BR -SHRA -SHRA -SHRA -SHRA SHRA SHRA SHRA SHRA SHRA SHRA SHRA SHRA -SHRA
WDir 120 80 80 80 80 70 70 70 70 70 70 70 70 80
WSpd 13 10 10 10 10 8 8 8 8 8 8 8 8 6
WGst -- -- -- -- -- -- -- -- -- -- -- -- -- --

Raw TAF
KPHL 222328Z 2300/2406 08010KT 6SM -SHRA OVC025
  FM230500 07008KT 4SM SHRA OVC008
  FM231300 08006KT 6SM -SHRA OVC010
  PROB30 2314/2318 5SM -SHRA
  FM231800 17007KT 6SM -SHRA VCTS OVC025CB
  FM232200 20007KT 6SM -SHRA VCTS OVC035CB


Raw METAR
KPHL 230021Z 12013KT 3SM -RA BR SCT017 BKN025 OVC055 18/17 A2996 RMK AO2 P0003 T01830167
KPHL 230016Z 09011KT 5SM -RA BR SCT019 BKN028 OVC055 19/17 A2996 RMK AO2 P0002 T01890167
KPHL 222354Z 09010KT 10SM -RA SCT017 BKN070 OVC130 19/17 A2997 RMK AO2 RAB08 SLP147 P0001 60001 T01890167 10228 20189 53001
KPHL 222345Z 09011KT 10SM -RA SCT017 BKN070 OVC130 19/17 A2997 RMK AO2 RAB08 P0001 T01940167
KPHL 222254Z 08012KT 10SM BKN022 BKN028 OVC080 20/16 A2996 RMK AO2 RAB05E27 SLP145 P0000 T02000161
KPHL 222237Z 08010KT 10SM BKN023 BKN028 OVC080 20/17 A2996 RMK AO2 RAB05E27 P0000 T02000167
KPHL 222154Z 08013KT 10SM FEW024 SCT080 BKN110 OVC160 21/16 A2996 RMK AO2 RAB04E32 SLP144 P0000 T02060161

METAR Board
Radar Display
Forecast Discussion

FOR SITUATIONAL AWARENESS. NOT TO BE USED FOR FLIGHT PLANNING PURPOSES.